Paynesville, MN

8:46 PM CST on February 10, 2016 (GMT -0600)
Paynesville

Weather History for KPEX - November, 2013

Change the Weather History Date:

Wednesday, November 20, 2013

  Actual Average (KLJF) Record (KLJF)
Temperature  
Mean Temperature 38 °F -  
Max Temperature 45 °F 35 °F 64 °F (1962)
Min Temperature 32 °F 21 °F 1 °F (1969)
Degree Days  
Heating Degree Days 26    
Moisture  
Dew Point 31 °F    
Average Humidity 70    
Maximum Humidity 95    
Minimum Humidity 59    
Precipitation  
Precipitation 0.00 in - - ()
Sea Level Pressure  
Sea Level Pressure 29.86 in    
Wind  
Wind Speed 13 mph (SSE)    
Max Wind Speed 18 mph    
Max Gust Speed 26 mph    
Visibility 10 miles    
Events      
Averages and records for this station are not official NWS values.
T = Trace of Precipitation, MM = Missing Value Source: NWS Daily Summary

Daily Weather History Graph

Daily Weather History Graph

Search for Another Location

Airport or City:

Trip Planner

Search our weather history database for the weather conditions in past years. The results will help you decide how hot, cold, wet, or windy it might be!

Date:

Astronomy

Nov. 20, 2013 Rise Set
Actual Time 7:24 AM CST 4:44 PM CST
Civil Twilight 6:52 AM CST 5:16 PM CST
Nautical Twilight 6:16 AM CST 5:52 PM CST
Astronomical Twilight 5:40 AM CST 6:27 PM CST
Moon 7:27 PM CST (11/20) 9:50 AM CST (11/20)
Length of Visible Light 10h 24m
Length of Day
9h 19m
Waning Gibbous, 91% of the Moon is Illuminated
Nov 20
Waning Gibbous
Nov 25
Last Quarter
Dec 2
New
Dec 9
First Quarter
Dec 17
Full

Hourly Weather History & Observations

Time (CST) Temp. Windchill Dew Point Humidity Pressure Visibility Wind Dir Wind Speed Gust Speed Precip Events Conditions
12:12 AM 42.4 °F 35.0 °F 31.1 °F 64% 29.79 in 10.0 mi SSE 15.0 mph 26.5 mph N/A   Clear
12:33 AM 42.8 °F 35.1 °F 31.1 °F 63% 29.79 in 10.0 mi SSE 16.1 mph 23.0 mph N/A   Clear
12:53 AM 42.8 °F 34.5 °F 30.9 °F 63% 29.79 in 10.0 mi SSE 18.4 mph 25.3 mph N/A   Clear
1:12 AM 42.4 °F 34.1 °F 30.9 °F 64% 29.79 in 10.0 mi SSE 18.4 mph 24.2 mph N/A   Clear
1:33 AM 42.1 °F 33.9 °F 30.9 °F 65% 29.79 in 10.0 mi SSE 17.3 mph 23.0 mph N/A   Clear
1:52 AM 42.1 °F 34.2 °F 30.7 °F 64% 29.79 in 10.0 mi SSE 16.1 mph 19.6 mph N/A   Clear
2:13 AM 42.1 °F 34.9 °F 30.7 °F 64% 29.80 in 10.0 mi SSE 13.8 mph 19.6 mph N/A   Clear
2:33 AM 41.9 °F 35.4 °F 30.6 °F 64% 29.79 in 10.0 mi SSE 11.5 mph 20.7 mph N/A   Clear
2:53 AM 42.1 °F 34.2 °F 30.6 °F 64% 29.80 in 10.0 mi SSE 16.1 mph 19.6 mph N/A   Clear
3:13 AM 42.3 °F 34.8 °F 30.2 °F 62% 29.80 in 10.0 mi SSE 15.0 mph 19.6 mph N/A   Clear
3:33 AM 42.3 °F 35.5 °F 30.0 °F 62% 29.80 in 10.0 mi SSE 12.7 mph 19.6 mph N/A   Clear
3:53 AM 41.9 °F 34.6 °F 29.8 °F 62% 29.80 in 10.0 mi SSE 13.8 mph 19.6 mph N/A   Clear
4:13 AM 41.2 °F 34.1 °F 30.0 °F 65% 29.80 in 10.0 mi SSE 12.7 mph 21.9 mph N/A   Clear
4:33 AM 41.0 °F 33.5 °F 30.0 °F 65% 29.80 in 10.0 mi SSE 13.8 mph 18.4 mph N/A   Clear
4:52 AM 40.5 °F 32.8 °F 30.0 °F 66% 29.80 in 10.0 mi SSE 13.8 mph 21.9 mph N/A   Clear
5:13 AM 40.1 °F 32.7 °F 30.0 °F 67% 29.80 in 10.0 mi SSE 12.7 mph 18.4 mph N/A   Clear
5:33 AM 40.1 °F 32.7 °F 29.8 °F 67% 29.80 in 10.0 mi SSE 12.7 mph - N/A   Clear
5:53 AM 40.1 °F 32.7 °F 29.7 °F 66% 29.81 in 10.0 mi SSE 12.7 mph 18.4 mph N/A   Clear
6:12 AM 39.7 °F 32.7 °F 29.5 °F 67% 29.81 in 10.0 mi SSE 11.5 mph 19.6 mph N/A   Clear
6:33 AM 40.1 °F 32.0 °F 29.3 °F 65% 29.81 in 10.0 mi SSE 15.0 mph 19.6 mph N/A   Clear
6:53 AM 40.1 °F 33.2 °F 29.3 °F 65% 29.82 in 10.0 mi SSE 11.5 mph - N/A   Clear
7:12 AM 40.1 °F 33.6 °F 29.3 °F 65% 29.82 in 10.0 mi SSE 10.4 mph 17.3 mph N/A   Clear
7:33 AM 39.7 °F 32.7 °F 29.1 °F 66% 29.83 in 10.0 mi SSE 11.5 mph 18.4 mph N/A   Clear
7:53 AM 39.6 °F 32.1 °F 28.9 °F 66% 29.83 in 10.0 mi SSE 12.7 mph 17.3 mph N/A   Clear
8:12 AM 39.7 °F 32.7 °F 28.9 °F 65% 29.84 in 10.0 mi SSE 11.5 mph 17.3 mph N/A   Clear
8:33 AM 40.1 °F 33.2 °F 28.9 °F 64% 29.84 in 10.0 mi SSE 11.5 mph 18.4 mph N/A   Clear
8:52 AM 40.1 °F 32.0 °F 28.6 °F 63% 29.85 in 10.0 mi SSE 15.0 mph 20.7 mph N/A   Clear
9:13 AM 40.6 °F 33.8 °F 28.6 °F 62% 29.85 in 10.0 mi SSE 11.5 mph - N/A   Clear
9:32 AM 41.0 °F 34.7 °F 28.8 °F 62% 29.86 in 10.0 mi SSE 10.4 mph 16.1 mph N/A   Clear
9:53 AM 41.4 °F 33.3 °F 28.9 °F 61% 29.86 in 10.0 mi SSE 16.1 mph - N/A   Clear
10:13 AM 41.9 °F 35.4 °F 29.5 °F 61% 29.86 in 10.0 mi SSE 11.5 mph 17.3 mph N/A   Clear
10:32 AM 42.3 °F 36.8 °F 29.8 °F 61% 29.87 in 10.0 mi SSE 9.2 mph 13.8 mph N/A   Clear
10:53 AM 43.7 °F 37.3 °F 30.7 °F 60% 29.87 in 10.0 mi SSE 12.7 mph 18.4 mph N/A   Clear
11:13 AM 44.1 °F 38.1 °F 31.1 °F 60% 29.87 in 10.0 mi SSE 11.5 mph - N/A   Mostly Cloudy
11:32 AM 44.6 °F 38.1 °F 31.8 °F 61% 29.86 in 10.0 mi SSE 13.8 mph - N/A   Overcast
11:53 AM 44.6 °F 38.1 °F 32.0 °F 61% 29.85 in 10.0 mi SSE 13.8 mph 21.9 mph N/A   Overcast
12:12 PM 44.6 °F 37.8 °F 32.0 °F 61% 29.85 in 10.0 mi SSE 15.0 mph 18.4 mph N/A   Overcast
12:33 PM 44.6 °F 38.8 °F 32.0 °F 61% 29.84 in 10.0 mi SSE 11.5 mph - N/A   Overcast
12:53 PM 45.5 °F 39.6 °F 32.0 °F 59% 29.84 in 10.0 mi SSE 12.7 mph - N/A   Overcast
1:12 PM 45.5 °F 38.9 °F 32.0 °F 59% 29.84 in 10.0 mi SSE 15.0 mph 18.4 mph N/A   Overcast
1:33 PM 45.0 °F 38.9 °F 32.0 °F 60% 29.84 in 10.0 mi SSE 12.7 mph 17.3 mph N/A   Overcast
1:52 PM 45.1 °F 38.8 °F 32.0 °F 60% 29.84 in 10.0 mi SSE 13.8 mph - N/A   Mostly Cloudy
2:13 PM 44.8 °F 39.4 °F 32.0 °F 61% 29.84 in 10.0 mi SSE 10.4 mph 18.4 mph N/A   Scattered Clouds
2:33 PM 45.0 °F 39.3 °F 32.0 °F 60% 29.84 in 10.0 mi SSE 11.5 mph 16.1 mph N/A   Scattered Clouds
2:53 PM 45.1 °F 39.9 °F 32.0 °F 60% 29.84 in 10.0 mi SE 10.4 mph - N/A   Clear
3:13 PM 44.6 °F 39.2 °F 32.2 °F 62% 29.84 in 10.0 mi SSE 10.4 mph - N/A   Clear
3:33 PM 43.7 °F 37.7 °F 32.0 °F 63% 29.85 in 10.0 mi SSE 11.5 mph 16.1 mph N/A   Clear
3:53 PM 43.7 °F 37.3 °F 32.0 °F 63% 29.84 in 10.0 mi SE 12.7 mph - N/A   Clear
4:12 PM 43.2 °F 37.9 °F 32.2 °F 65% 29.86 in 10.0 mi SE 9.2 mph - N/A   Clear
4:33 PM 42.3 °F 37.3 °F 32.0 °F 67% 29.87 in 10.0 mi SE 8.1 mph - N/A   Clear
4:53 PM 41.4 °F 35.7 °F 32.0 °F 69% 29.87 in 10.0 mi SE 9.2 mph - N/A   Clear
5:13 PM 40.6 °F 35.4 °F 32.0 °F 71% 29.88 in 10.0 mi SE 8.1 mph - N/A   Clear
5:32 PM 40.1 °F 34.7 °F 32.0 °F 73% 29.89 in 10.0 mi SE 8.1 mph - N/A   Clear
5:53 PM 39.4 °F 34.5 °F 32.0 °F 75% 29.90 in 10.0 mi SE 6.9 mph - N/A   Clear
6:13 PM 38.8 °F 33.8 °F 32.0 °F 76% 29.91 in 10.0 mi SE 6.9 mph - N/A   Clear
6:32 PM 38.5 °F 34.1 °F 32.0 °F 78% 29.91 in 10.0 mi SE 5.8 mph - N/A   Clear
6:53 PM 37.6 °F 33.1 °F 31.8 °F 80% 29.92 in 10.0 mi ESE 5.8 mph - N/A   Clear
7:13 PM 36.7 °F 32.0 °F 31.5 °F 81% 29.94 in 10.0 mi ESE 5.8 mph - N/A   Clear
7:33 PM 35.6 °F 30.7 °F 31.5 °F 85% 29.94 in 10.0 mi SE 5.8 mph - N/A   Clear
7:52 PM 35.6 °F 29.9 °F 31.8 °F 86% 29.95 in 10.0 mi SE 6.9 mph - N/A   Clear
8:12 PM 35.1 °F 28.6 °F 31.8 °F 88% 29.95 in 10.0 mi SE 8.1 mph - N/A   Clear
8:33 PM 34.9 °F 29.0 °F 31.8 °F 89% 29.95 in 10.0 mi ESE 6.9 mph - N/A   Clear
8:53 PM 34.5 °F 27.9 °F 31.8 °F 90% 29.95 in 10.0 mi SE 8.1 mph - N/A   Clear
9:12 PM 34.5 °F 27.9 °F 32.0 °F 90% 29.96 in 10.0 mi SE 8.1 mph - N/A   Clear
9:33 PM 34.0 °F 28.0 °F 32.0 °F 92% 29.97 in 7.0 mi SE 6.9 mph - N/A   Clear
9:52 PM 34.0 °F 28.0 °F 32.0 °F 92% 29.97 in 7.0 mi SE 6.9 mph - N/A   Clear
10:13 PM 33.8 °F 30.8 °F 32.0 °F 93% 29.99 in 7.0 mi SE 3.5 mph - N/A   Scattered Clouds
10:33 PM 33.8 °F 29.6 °F 32.0 °F 93% 30.00 in 5.0 mi SE 4.6 mph - N/A   Scattered Clouds
10:53 PM 33.4 °F - 31.8 °F 94% 30.01 in 5.0 mi Calm Calm - N/A   Mostly Cloudy
11:12 PM 32.9 °F - 31.6 °F 95% 30.01 in 5.0 mi Calm Calm - N/A   Overcast
11:33 PM 33.3 °F - 32.0 °F 95% 30.02 in 5.0 mi Calm Calm - N/A   Overcast
11:52 PM 33.6 °F - 32.0 °F 94% 30.02 in 5.0 mi Calm Calm - N/A   Overcast